CheckWX is a tool to help pilots better visualize weather data.  It is not intended as a substitute for an official pre-flight weather briefing.

05:41:44 UTC

KISQ METAR
Schoolcraft County Airport
Manistique, Michigan, USA
Current

7 mins ago

KISQ 200535Z AUTO 27004KT 10SM CLR M10/M16 A3038 RMK AO2 T10971159
Observed
Feb-20 @ 05:35 UTC
Wind
  • 270° at 4 KTS
Visibility
16,093 meters
Flight Rules
VFR
Cloud Levels
  • Clear skies
Temperature
-10°C / 14°F
Dewpoint
-16°C / 3°F
Humidity
62%
Altimeter
30.38" Hg
Pressure
1028.81 hPa
Previous

26 mins ago

KISQ 200516Z AUTO 25004KT 10SM CLR M08/M15 A3039 RMK AO2 T10851151
Observed
Feb-20 @ 05:16 UTC
Wind
  • 250° at 4 KTS
Visibility
16,093 meters
Flight Rules
VFR
Cloud Levels
  • Clear skies
Temperature
-9°C / 16°F
Dewpoint
-15°C / 5°F
Humidity
62%
Altimeter
30.39" Hg
Pressure
1029.11 hPa
Previous

46 mins ago

KISQ 200456Z AUTO 26004KT 10SM CLR M10/M16 A3040 RMK AO2 T11021156
Observed
Feb-20 @ 04:56 UTC
Wind
  • 260° at 4 KTS
Visibility
16,093 meters
Flight Rules
VFR
Cloud Levels
  • Clear skies
Temperature
-10°C / 14°F
Dewpoint
-16°C / 3°F
Humidity
62%
Altimeter
30.4" Hg
Pressure
1029.41 hPa